Weather reports worldwide

Advertisment
Monks wood, United Kingdom (99078): temperature & dewpoint: 10.01.2018 07:00:00 - 16.01.2018 07:00:00 (GMT)Monks wood, United Kingdom (99078): temperature -20cm & temperature -100cm: 10.01.2018 07:00:00 - 16.01.2018 07:00:00 (GMT)Monks wood, United Kingdom (99078): wind speed & gusts: 10.01.2018 07:00:00 - 16.01.2018 07:00:00 (GMT)Monks wood, United Kingdom (99078): wind direction: 10.01.2018 07:00:00 - 16.01.2018 07:00:00 (GMT)Monks wood, United Kingdom (99078): precipitation: 10.01.2018 07:00:00 - 16.01.2018 07:00:00 (GMT)
Date & Time tt [°C] td [°C] tt -20cm [°C] tt -100cm [°C] ff [km/h] ff [kn] fx [km/h] fx [kn] dd rr [mm]
16.01.2018 07:00:00 3,1 0,6 - - 16 9 - - WSW 0,0
16.01.2018 06:00:00 3,8 1,0 - - 21 11 - - W 0,0
16.01.2018 05:00:00 4,1 1,3 - - 18 10 - - WSW 0,0
16.01.2018 04:00:00 5,1 2,0 - - 21 11 - - WSW 0,0
16.01.2018 03:00:00 5,0 2,7 - - 13 7 - - WSW 0,0
16.01.2018 02:00:00 4,8 3,0 - - 18 10 - - WSW 0,2
16.01.2018 01:00:00 4,2 2,4 - - 16 9 - - SW 0,0
16.01.2018 00:00:00 4,9 2,7 - - 22 12 - - SW 0,0
15.01.2018 23:00:00 5,5 2,8 - - 24 13 - - WSW 0,0
15.01.2018 22:00:00 5,7 3,0 - - 24 13 - - WSW 0,0
15.01.2018 21:00:00 5,0 2,6 - - 16 9 - - WSW 0,0
15.01.2018 20:00:00 5,5 2,8 - - 18 10 - - WSW 0,0
15.01.2018 19:00:00 5,9 2,7 - - 18 10 - - WSW 0,0
15.01.2018 18:00:00 6,4 3,5 - - 11 6 - - W 0,0
15.01.2018 17:00:00 6,7 5,0 - - 9 5 - - W 0,0
15.01.2018 16:00:00 7,2 5,4 - - 15 8 - - W 0,2
15.01.2018 15:00:00 8,0 6,2 - - 11 6 - - W 1,6
15.01.2018 14:00:00 10,5 7,8 - - 16 9 - - WSW 0,0
15.01.2018 13:00:00 9,7 9,0 - - 21 11 - - SW 0,2
15.01.2018 12:00:00 10,1 9,2 - - 21 11 - - SW 0,0
15.01.2018 11:00:00 9,7 8,7 - - 24 13 - - SSW 0,0
15.01.2018 10:00:00 9,1 8,4 - - 24 13 - - SW 0,0
15.01.2018 09:00:00 8,6 7,9 5,5 6,7 28 15 46 25 SW 0,0
15.01.2018 08:00:00 7,9 7,4 - - 29 16 46 25 SSW 1,6
15.01.2018 07:00:00 7,1 6,7 - - 28 15 48 26 SSW 0,4
15.01.2018 06:00:00 6,5 5,9 - - 28 15 46 25 SSW -
15.01.2018 05:00:00 6,0 4,9 - - 24 13 - - SSW 0,2
15.01.2018 04:00:00 5,2 4,3 - - 24 13 - - SSW 1,4
15.01.2018 03:00:00 4,9 3,7 - - 24 13 - - SSW 1,0
15.01.2018 02:00:00 5,0 2,8 - - 22 12 - - SSW 0,0
15.01.2018 01:00:00 4,6 1,7 - - 22 12 - - SSW 0,0
15.01.2018 00:00:00 4,0 1,1 - - 21 11 - - SSW 0,0
14.01.2018 23:00:00 3,5 0,7 - - 16 9 - - SSW 0,0
14.01.2018 22:00:00 3,2 0,3 - - 13 7 - - SSW 0,0
14.01.2018 21:00:00 3,5 0,4 - - 18 10 - - SW 0,0
14.01.2018 20:00:00 3,9 0,6 - - 13 7 - - SW 0,0
14.01.2018 19:00:00 4,0 0,8 - - 11 6 - - WSW 0,0
14.01.2018 18:00:00 4,3 0,9 - - 9 5 - - SW 0,0
14.01.2018 17:00:00 4,5 0,8 - - 8 4 - - SSW 0,0
14.01.2018 16:00:00 4,6 0,5 - - 11 6 - - SSW 0,0
14.01.2018 15:00:00 5,0 1,2 - - 8 4 - - SSW 0,0
14.01.2018 14:00:00 5,1 1,3 - - 4 2 - - SSE 0,0
14.01.2018 13:00:00 5,0 1,7 - - 4 2 - - SE 0,0
14.01.2018 12:00:00 4,7 1,6 - - 2 1 - - NNE 0,0
14.01.2018 11:00:00 4,3 1,6 - - 2 1 - - N 0,0
14.01.2018 10:00:00 4,1 1,9 - - 2 1 - - NE 0,0
14.01.2018 09:00:00 3,5 1,0 5,7 6,7 2 1 - - SE 0,0
14.01.2018 08:00:00 4,0 0,8 - - 2 1 - - SE 0,0
14.01.2018 07:00:00 4,2 1,0 - - 5 3 - - ESE 0,0
14.01.2018 06:00:00 3,9 1,0 - - 2 1 - - SSE 0,0
14.01.2018 05:00:00 3,9 1,5 - - 5 3 - - ESE 0,0
14.01.2018 04:00:00 4,1 1,2 - - 4 2 - - ESE 0,0
14.01.2018 03:00:00 4,0 1,6 - - 4 2 - - ESE 0,0
14.01.2018 02:00:00 4,2 1,4 - - 5 3 - - SSE -
14.01.2018 01:00:00 4,2 1,5 - - 8 4 - - S 0,0
14.01.2018 00:00:00 4,3 1,4 - - 9 5 - - SE 0,0
13.01.2018 23:00:00 4,6 2,2 - - 8 4 - - SSE 0,0
13.01.2018 22:00:00 4,6 2,5 - - 5 3 - - ESE 0,0
13.01.2018 21:00:00 4,8 2,2 - - 8 4 - - SSE 0,0
13.01.2018 20:00:00 4,8 2,2 - - 8 4 - - SSE 0,0
13.01.2018 19:00:00 4,6 2,2 - - 8 4 - - SSE 0,0
13.01.2018 18:00:00 4,5 2,1 - - 11 6 - - SSE 0,0
13.01.2018 17:00:00 4,8 2,6 - - 8 4 - - SE 0,0
13.01.2018 16:00:00 5,2 3,0 - - 9 5 - - SE 0,0
13.01.2018 15:00:00 6,2 3,3 - - 9 5 - - SSE 0,0
13.01.2018 14:00:00 6,5 3,4 - - 9 5 - - SSE 0,0
13.01.2018 13:00:00 6,5 3,7 - - 13 7 - - SSE 0,0
13.01.2018 12:00:00 6,0 3,7 - - 11 6 - - SSE 0,0
13.01.2018 11:00:00 5,6 3,4 - - 9 5 - - SSE 0,0
13.01.2018 10:00:00 5,2 3,0 - - 8 4 - - SE 0,0
13.01.2018 09:00:00 5,0 2,6 5,5 6,7 9 5 - - SE 0,0
13.01.2018 08:00:00 4,9 2,6 - - 9 5 - - SSE 0,0
13.01.2018 07:00:00 4,8 2,9 - - 8 4 - - SSE 0,0
13.01.2018 06:00:00 4,8 3,3 - - 9 5 - - S 0,0
13.01.2018 05:00:00 4,7 3,4 - - 8 4 - - SSE 0,0
13.01.2018 04:00:00 4,7 3,4 - - 5 3 - - SSE 0,0
13.01.2018 03:00:00 4,7 3,5 - - 8 4 - - S 0,0
13.01.2018 02:00:00 4,5 3,4 - - 8 4 - - SSE 0,0
13.01.2018 01:00:00 4,9 3,2 - - 9 5 - - S 0,0
13.01.2018 00:00:00 5,3 3,6 - - 11 6 - - S 0,0
12.01.2018 23:00:00 5,7 4,0 - - 11 6 - - S 0,0
12.01.2018 22:00:00 5,9 4,7 - - 9 5 - - S 0,0
12.01.2018 21:00:00 5,8 5,0 - - 9 5 - - SSE 0,0
12.01.2018 20:00:00 5,5 4,6 - - 5 3 - - SE 0,0
12.01.2018 19:00:00 5,8 4,8 - - 5 3 - - SSE 0,0
12.01.2018 18:00:00 5,9 5,2 - - 5 3 - - SSE 0,0
12.01.2018 17:00:00 6,1 5,2 - - 5 3 - - SE 0,0
12.01.2018 16:00:00 6,3 5,3 - - 5 3 - - ESE 0,0
12.01.2018 15:00:00 6,6 5,3 - - 4 2 - - S 0,0
12.01.2018 14:00:00 6,7 5,5 - - 5 3 - - SSE 0,0
12.01.2018 13:00:00 - - - - - - - - - 0,0
12.01.2018 12:00:00 6,3 5,8 - - 5 3 - - SSE 0,0
12.01.2018 11:00:00 5,9 5,7 - - 5 3 - - SSE 0,0
12.01.2018 10:00:00 5,5 5,4 - - 8 4 - - SE 0,0
12.01.2018 09:00:00 5,3 5,2 5,2 6,7 5 3 - - ESE 0,0
12.01.2018 08:00:00 5,3 5,2 - - 4 2 - - E 0,4
12.01.2018 07:00:00 5,4 5,3 - - 2 1 - - NE 0,0
12.01.2018 06:00:00 5,4 5,3 - - 4 2 - - ENE 0,0
12.01.2018 05:00:00 5,4 5,3 - - 2 1 - - NNE 0,0
12.01.2018 04:00:00 5,3 5,2 - - 0 0 - - N 0,0
12.01.2018 03:00:00 5,6 5,5 - - 2 1 - - NE 0,0
12.01.2018 02:00:00 5,8 5,7 - - 4 2 - - ENE 0,0
12.01.2018 01:00:00 6,0 6,0 - - 4 2 - - NE 0,0
12.01.2018 00:00:00 6,1 5,9 - - 4 2 - - NNE 0,0
11.01.2018 23:00:00 6,1 5,8 - - 4 2 - - NNE 0,0
11.01.2018 22:00:00 6,0 5,7 - - 2 1 - - N 0,0
11.01.2018 21:00:00 5,9 5,7 - - 2 1 - - NW 0,0
11.01.2018 20:00:00 6,1 5,6 - - 4 2 - - NNE 0,0
11.01.2018 19:00:00 6,3 5,7 - - 4 2 - - N 0,0
11.01.2018 18:00:00 6,4 5,6 - - 5 3 - - N 0,0
11.01.2018 17:00:00 6,5 5,5 - - 5 3 - - N 0,0
11.01.2018 16:00:00 6,6 5,9 - - 8 4 - - N 0,0
11.01.2018 15:00:00 6,7 6,0 - - 5 3 - - N 0,0
11.01.2018 14:00:00 6,7 6,0 - - 5 3 - - N 0,0
11.01.2018 13:00:00 6,4 5,7 - - 5 3 - - N 0,0
11.01.2018 12:00:00 6,3 5,8 - - 8 4 - - NNW 0,0
11.01.2018 11:00:00 6,1 5,8 - - 5 3 - - N 0,0
11.01.2018 10:00:00 5,9 5,7 - - 5 3 - - N 0,0
11.01.2018 09:00:00 5,8 5,7 4,9 6,7 5 3 - - N 0,0
11.01.2018 08:00:00 5,8 5,7 - - 5 3 - - N 0,0
11.01.2018 07:00:00 5,8 5,6 - - 5 3 - - N 0,0
11.01.2018 06:00:00 5,7 5,6 - - 4 2 - - N 0,2
11.01.2018 05:00:00 5,7 5,6 - - 5 3 - - N 0,0
11.01.2018 04:00:00 - - - - - - - - - 0,4
11.01.2018 03:00:00 5,3 5,1 - - 4 2 - - NNW 0,0
11.01.2018 02:00:00 4,9 4,5 - - 4 2 - - NW 0,0
11.01.2018 01:00:00 4,8 4,6 - - 2 1 - - WNW 0,0
11.01.2018 00:00:00 4,8 4,5 - - 2 1 - - W 0,0
10.01.2018 23:00:00 4,7 4,5 - - 2 1 - - NW 0,0
10.01.2018 22:00:00 4,5 4,3 - - 8 4 - - WSW 0,0
10.01.2018 21:00:00 5,1 4,9 - - 5 3 - - W 0,0
10.01.2018 20:00:00 5,1 4,9 - - 5 3 - - W 0,0
10.01.2018 19:00:00 5,9 5,2 - - 8 4 - - WSW 0,0
10.01.2018 18:00:00 6,4 5,7 - - 8 4 - - W 0,0
10.01.2018 17:00:00 6,9 6,3 - - 9 5 - - WSW -
10.01.2018 16:00:00 7,8 6,6 - - 5 3 - - W 0,0
10.01.2018 15:00:00 8,2 7,2 - - 5 3 - - W 0,0
10.01.2018 14:00:00 7,6 7,2 - - 5 3 - - W 0,0
10.01.2018 13:00:00 7,3 7,0 - - 5 3 - - W 0,2
10.01.2018 12:00:00 7,3 7,0 - - 8 4 - - WSW 0,0
10.01.2018 11:00:00 7,2 7,0 - - 8 4 - - W 0,0
10.01.2018 10:00:00 6,9 6,8 - - 5 3 - - W 0,2
10.01.2018 09:00:00 6,8 6,8 4,2 6,7 4 2 - - WNW 1,6
10.01.2018 08:00:00 7,0 6,8 - - 2 1 - - S 1,0
10.01.2018 07:00:00 7,0 6,8 - - 4 2 - - SSE 0,0

tt = temperature
td = dewpoint
tt -20cm = temperature -20cm
tt -100cm = temperature -100cm
ff = wind speed
fx = gusts
dd = wind direction
rr = precipitation

Next stations